sensor_id;sensor_type;location;lat;lon;timestamp;P1;durP1;ratioP1;P2;durP2;ratioP2
17228;SDS011;8731;50.364;8.958;2023-05-07T00:03:06;3.37;;;1.70;;
17228;SDS011;8731;50.364;8.958;2023-05-07T00:07:29;2.20;;;1.93;;
17228;SDS011;8731;50.364;8.958;2023-05-07T00:11:51;2.40;;;2.00;;
17228;SDS011;8731;50.364;8.958;2023-05-07T00:16:15;2.27;;;1.80;;
17228;SDS011;8731;50.364;8.958;2023-05-07T00:20:37;3.07;;;1.90;;
17228;SDS011;8731;50.364;8.958;2023-05-07T00:24:59;1.90;;;1.60;;
17228;SDS011;8731;50.364;8.958;2023-05-07T00:29:22;3.60;;;2.27;;
17228;SDS011;8731;50.364;8.958;2023-05-07T00:33:45;2.40;;;2.00;;
17228;SDS011;8731;50.364;8.958;2023-05-07T00:38:08;2.10;;;1.93;;
17228;SDS011;8731;50.364;8.958;2023-05-07T00:42:30;3.57;;;1.83;;
17228;SDS011;8731;50.364;8.958;2023-05-07T00:46:52;2.57;;;2.00;;
17228;SDS011;8731;50.364;8.958;2023-05-07T00:51:18;3.63;;;2.13;;
17228;SDS011;8731;50.364;8.958;2023-05-07T00:55:40;2.73;;;1.90;;
17228;SDS011;8731;50.364;8.958;2023-05-07T01:00:04;2.97;;;2.03;;
17228;SDS011;8731;50.364;8.958;2023-05-07T01:04:28;2.40;;;2.20;;
17228;SDS011;8731;50.364;8.958;2023-05-07T01:08:52;5.50;;;2.20;;
17228;SDS011;8731;50.364;8.958;2023-05-07T01:13:17;2.93;;;1.90;;
17228;SDS011;8731;50.364;8.958;2023-05-07T01:17:41;2.27;;;1.80;;
17228;SDS011;8731;50.364;8.958;2023-05-07T01:22:14;1.80;;;1.63;;
17228;SDS011;8731;50.364;8.958;2023-05-07T01:26:45;1.37;;;1.27;;
17228;SDS011;8731;50.364;8.958;2023-05-07T01:31:10;4.03;;;1.70;;
17228;SDS011;8731;50.364;8.958;2023-05-07T01:35:37;3.87;;;1.63;;
17228;SDS011;8731;50.364;8.958;2023-05-07T01:40:05;2.33;;;1.57;;
17228;SDS011;8731;50.364;8.958;2023-05-07T01:44:31;2.10;;;1.70;;
17228;SDS011;8731;50.364;8.958;2023-05-07T01:48:53;6.83;;;2.40;;
17228;SDS011;8731;50.364;8.958;2023-05-07T01:53:16;2.77;;;2.13;;
17228;SDS011;8731;50.364;8.958;2023-05-07T01:57:38;3.53;;;2.37;;
17228;SDS011;8731;50.364;8.958;2023-05-07T02:02:02;3.17;;;2.30;;
17228;SDS011;8731;50.364;8.958;2023-05-07T02:06:26;3.53;;;2.40;;
17228;SDS011;8731;50.364;8.958;2023-05-07T02:10:55;3.93;;;2.50;;
17228;SDS011;8731;50.364;8.958;2023-05-07T02:15:18;3.10;;;2.13;;
17228;SDS011;8731;50.364;8.958;2023-05-07T02:19:42;2.50;;;2.30;;
17228;SDS011;8731;50.364;8.958;2023-05-07T02:24:05;6.10;;;2.50;;
17228;SDS011;8731;50.364;8.958;2023-05-07T02:28:28;2.50;;;2.30;;
17228;SDS011;8731;50.364;8.958;2023-05-07T02:32:54;2.53;;;2.13;;
17228;SDS011;8731;50.364;8.958;2023-05-07T02:37:18;3.20;;;2.43;;
17228;SDS011;8731;50.364;8.958;2023-05-07T02:41:41;3.80;;;2.23;;
17228;SDS011;8731;50.364;8.958;2023-05-07T02:46:04;3.63;;;2.60;;
17228;SDS011;8731;50.364;8.958;2023-05-07T02:50:31;2.23;;;1.90;;
17228;SDS011;8731;50.364;8.958;2023-05-07T02:54:55;5.00;;;2.10;;
17228;SDS011;8731;50.364;8.958;2023-05-07T02:59:18;2.60;;;2.00;;
17228;SDS011;8731;50.364;8.958;2023-05-07T03:03:40;3.03;;;2.40;;
17228;SDS011;8731;50.364;8.958;2023-05-07T03:08:02;3.80;;;2.37;;
17228;SDS011;8731;50.364;8.958;2023-05-07T03:12:27;3.80;;;2.27;;
17228;SDS011;8731;50.364;8.958;2023-05-07T03:16:50;3.67;;;2.20;;
17228;SDS011;8731;50.364;8.958;2023-05-07T03:21:12;3.40;;;2.10;;
17228;SDS011;8731;50.364;8.958;2023-05-07T03:25:35;2.97;;;2.50;;
17228;SDS011;8731;50.364;8.958;2023-05-07T03:29:59;3.27;;;2.30;;
17228;SDS011;8731;50.364;8.958;2023-05-07T03:34:22;4.57;;;2.80;;
17228;SDS011;8731;50.364;8.958;2023-05-07T03:38:45;3.30;;;2.40;;
17228;SDS011;8731;50.364;8.958;2023-05-07T03:43:09;2.80;;;2.10;;
17228;SDS011;8731;50.364;8.958;2023-05-07T03:47:38;2.70;;;2.27;;
17228;SDS011;8731;50.364;8.958;2023-05-07T03:52:02;2.30;;;2.10;;
17228;SDS011;8731;50.364;8.958;2023-05-07T03:56:26;2.43;;;2.23;;
17228;SDS011;8731;50.364;8.958;2023-05-07T04:00:50;4.13;;;2.67;;
17228;SDS011;8731;50.364;8.958;2023-05-07T04:05:20;2.33;;;2.10;;
17228;SDS011;8731;50.364;8.958;2023-05-07T04:09:45;2.40;;;2.20;;
17228;SDS011;8731;50.364;8.958;2023-05-07T04:14:08;3.60;;;2.33;;
17228;SDS011;8731;50.364;8.958;2023-05-07T04:18:31;2.73;;;1.67;;
17228;SDS011;8731;50.364;8.958;2023-05-07T04:22:55;2.90;;;2.00;;
17228;SDS011;8731;50.364;8.958;2023-05-07T04:27:18;3.63;;;1.80;;
17228;SDS011;8731;50.364;8.958;2023-05-07T04:31:42;3.20;;;1.80;;
17228;SDS011;8731;50.364;8.958;2023-05-07T04:36:05;4.80;;;2.43;;
17228;SDS011;8731;50.364;8.958;2023-05-07T04:40:36;2.23;;;1.87;;
17228;SDS011;8731;50.364;8.958;2023-05-07T04:45:00;3.70;;;2.00;;
17228;SDS011;8731;50.364;8.958;2023-05-07T04:49:27;2.50;;;2.17;;
17228;SDS011;8731;50.364;8.958;2023-05-07T04:53:52;2.37;;;2.00;;
17228;SDS011;8731;50.364;8.958;2023-05-07T04:58:16;3.40;;;2.50;;
17228;SDS011;8731;50.364;8.958;2023-05-07T05:02:41;2.50;;;2.30;;
17228;SDS011;8731;50.364;8.958;2023-05-07T05:07:07;3.83;;;3.17;;
17228;SDS011;8731;50.364;8.958;2023-05-07T05:11:30;3.43;;;2.57;;
17228;SDS011;8731;50.364;8.958;2023-05-07T05:15:55;3.60;;;2.97;;
17228;SDS011;8731;50.364;8.958;2023-05-07T05:20:19;3.57;;;3.27;;
17228;SDS011;8731;50.364;8.958;2023-05-07T05:24:43;2.90;;;2.70;;
17228;SDS011;8731;50.364;8.958;2023-05-07T05:29:06;2.63;;;2.43;;
17228;SDS011;8731;50.364;8.958;2023-05-07T05:33:30;3.20;;;2.80;;
17228;SDS011;8731;50.364;8.958;2023-05-07T05:37:58;2.53;;;2.30;;
17228;SDS011;8731;50.364;8.958;2023-05-07T05:42:20;2.93;;;2.57;;
17228;SDS011;8731;50.364;8.958;2023-05-07T05:46:43;5.43;;;2.97;;
17228;SDS011;8731;50.364;8.958;2023-05-07T05:51:07;3.73;;;2.53;;
17228;SDS011;8731;50.364;8.958;2023-05-07T05:55:29;3.73;;;2.77;;
17228;SDS011;8731;50.364;8.958;2023-05-07T05:59:53;2.57;;;2.37;;
17228;SDS011;8731;50.364;8.958;2023-05-07T06:04:15;2.80;;;2.60;;
17228;SDS011;8731;50.364;8.958;2023-05-07T06:08:39;2.67;;;2.47;;
17228;SDS011;8731;50.364;8.958;2023-05-07T06:13:05;3.13;;;2.87;;
17228;SDS011;8731;50.364;8.958;2023-05-07T06:17:30;2.83;;;2.63;;
17228;SDS011;8731;50.364;8.958;2023-05-07T06:21:52;4.00;;;3.10;;
17228;SDS011;8731;50.364;8.958;2023-05-07T06:26:18;3.90;;;2.60;;
17228;SDS011;8731;50.364;8.958;2023-05-07T06:30:42;3.53;;;2.80;;
17228;SDS011;8731;50.364;8.958;2023-05-07T06:35:04;4.43;;;2.80;;
17228;SDS011;8731;50.364;8.958;2023-05-07T06:39:31;4.73;;;2.70;;
17228;SDS011;8731;50.364;8.958;2023-05-07T06:43:55;4.17;;;3.10;;
17228;SDS011;8731;50.364;8.958;2023-05-07T06:48:30;3.20;;;2.90;;
17228;SDS011;8731;50.364;8.958;2023-05-07T06:52:58;4.00;;;2.90;;
17228;SDS011;8731;50.364;8.958;2023-05-07T06:57:20;4.13;;;2.90;;
17228;SDS011;8731;50.364;8.958;2023-05-07T07:01:44;4.00;;;2.90;;
17228;SDS011;8731;50.364;8.958;2023-05-07T07:06:06;3.67;;;3.00;;
17228;SDS011;8731;50.364;8.958;2023-05-07T07:10:29;3.17;;;2.90;;
17228;SDS011;8731;50.364;8.958;2023-05-07T07:14:51;4.37;;;3.00;;
17228;SDS011;8731;50.364;8.958;2023-05-07T07:19:15;2.80;;;2.60;;
17228;SDS011;8731;50.364;8.958;2023-05-07T07:23:40;3.47;;;3.17;;
17228;SDS011;8731;50.364;8.958;2023-05-07T07:28:03;4.23;;;2.80;;
17228;SDS011;8731;50.364;8.958;2023-05-07T07:32:26;6.47;;;2.97;;
17228;SDS011;8731;50.364;8.958;2023-05-07T07:36:50;2.87;;;2.57;;
17228;SDS011;8731;50.364;8.958;2023-05-07T07:41:13;3.10;;;2.63;;
17228;SDS011;8731;50.364;8.958;2023-05-07T07:45:36;2.80;;;2.60;;
17228;SDS011;8731;50.364;8.958;2023-05-07T07:49:58;3.37;;;3.07;;
17228;SDS011;8731;50.364;8.958;2023-05-07T07:54:23;2.83;;;2.53;;
17228;SDS011;8731;50.364;8.958;2023-05-07T07:58:46;3.13;;;2.73;;
17228;SDS011;8731;50.364;8.958;2023-05-07T08:03:09;3.60;;;2.73;;
17228;SDS011;8731;50.364;8.958;2023-05-07T08:07:35;3.10;;;2.53;;
17228;SDS011;8731;50.364;8.958;2023-05-07T08:11:59;3.27;;;2.80;;
17228;SDS011;8731;50.364;8.958;2023-05-07T08:16:25;4.83;;;2.90;;
17228;SDS011;8731;50.364;8.958;2023-05-07T08:20:48;2.33;;;2.20;;
17228;SDS011;8731;50.364;8.958;2023-05-07T08:25:15;3.57;;;2.67;;
17228;SDS011;8731;50.364;8.958;2023-05-07T08:29:38;2.80;;;2.60;;
17228;SDS011;8731;50.364;8.958;2023-05-07T08:34:02;5.70;;;2.97;;
17228;SDS011;8731;50.364;8.958;2023-05-07T08:38:27;3.83;;;2.53;;
17228;SDS011;8731;50.364;8.958;2023-05-07T08:42:50;3.83;;;2.90;;
17228;SDS011;8731;50.364;8.958;2023-05-07T08:47:16;2.80;;;2.60;;
17228;SDS011;8731;50.364;8.958;2023-05-07T08:51:40;3.03;;;2.83;;
17228;SDS011;8731;50.364;8.958;2023-05-07T08:56:04;3.43;;;3.13;;
17228;SDS011;8731;50.364;8.958;2023-05-07T09:00:29;2.70;;;2.50;;
17228;SDS011;8731;50.364;8.958;2023-05-07T09:04:54;4.27;;;2.83;;
17228;SDS011;8731;50.364;8.958;2023-05-07T09:09:17;7.03;;;3.03;;
17228;SDS011;8731;50.364;8.958;2023-05-07T09:13:41;3.20;;;2.90;;
17228;SDS011;8731;50.364;8.958;2023-05-07T09:18:05;4.20;;;2.80;;
17228;SDS011;8731;50.364;8.958;2023-05-07T09:22:32;3.70;;;3.13;;
17228;SDS011;8731;50.364;8.958;2023-05-07T09:26:59;2.63;;;2.43;;
17228;SDS011;8731;50.364;8.958;2023-05-07T09:31:24;3.13;;;2.73;;
17228;SDS011;8731;50.364;8.958;2023-05-07T09:35:50;3.03;;;2.80;;
17228;SDS011;8731;50.364;8.958;2023-05-07T09:40:22;4.43;;;2.63;;
17228;SDS011;8731;50.364;8.958;2023-05-07T09:44:48;4.33;;;2.77;;
17228;SDS011;8731;50.364;8.958;2023-05-07T09:49:16;3.13;;;2.83;;
17228;SDS011;8731;50.364;8.958;2023-05-07T09:53:51;2.80;;;2.60;;
17228;SDS011;8731;50.364;8.958;2023-05-07T09:58:19;3.50;;;2.63;;
17228;SDS011;8731;50.364;8.958;2023-05-07T10:02:43;2.80;;;2.60;;
17228;SDS011;8731;50.364;8.958;2023-05-07T10:07:10;3.90;;;2.73;;
17228;SDS011;8731;50.364;8.958;2023-05-07T10:11:34;3.80;;;2.60;;
17228;SDS011;8731;50.364;8.958;2023-05-07T10:15:59;3.92;;;2.75;;
17228;SDS011;8731;50.364;8.958;2023-05-07T10:20:28;3.00;;;2.00;;
17228;SDS011;8731;50.364;8.958;2023-05-07T10:24:52;4.22;;;2.60;;
17228;SDS011;8731;50.364;8.958;2023-05-07T10:29:18;2.70;;;2.50;;
17228;SDS011;8731;50.364;8.958;2023-05-07T10:33:58;3.03;;;2.30;;
17228;SDS011;8731;50.364;8.958;2023-05-07T10:38:24;2.55;;;2.20;;
17228;SDS011;8731;50.364;8.958;2023-05-07T10:42:54;2.40;;;2.15;;
17228;SDS011;8731;50.364;8.958;2023-05-07T10:47:22;3.33;;;2.20;;
17228;SDS011;8731;50.364;8.958;2023-05-07T10:56:41;2.30;;;2.10;;
17228;SDS011;8731;50.364;8.958;2023-05-07T11:01:12;2.40;;;1.80;;
17228;SDS011;8731;50.364;8.958;2023-05-07T11:05:38;2.67;;;2.28;;
17228;SDS011;8731;50.364;8.958;2023-05-07T11:10:09;2.53;;;2.13;;
17228;SDS011;8731;50.364;8.958;2023-05-07T11:14:52;2.37;;;2.00;;
17228;SDS011;8731;50.364;8.958;2023-05-07T11:24:21;2.63;;;2.43;;
17228;SDS011;8731;50.364;8.958;2023-05-07T11:29:09;2.60;;;2.40;;
17228;SDS011;8731;50.364;8.958;2023-05-07T11:33:35;2.97;;;2.07;;
17228;SDS011;8731;50.364;8.958;2023-05-07T11:38:01;2.57;;;2.00;;
17228;SDS011;8731;50.364;8.958;2023-05-07T11:42:27;2.50;;;2.07;;
17228;SDS011;8731;50.364;8.958;2023-05-07T11:46:52;2.60;;;2.40;;
17228;SDS011;8731;50.364;8.958;2023-05-07T11:51:18;2.20;;;2.00;;
17228;SDS011;8731;50.364;8.958;2023-05-07T11:55:41;2.47;;;2.23;;
17228;SDS011;8731;50.364;8.958;2023-05-07T12:00:05;2.47;;;2.10;;
17228;SDS011;8731;50.364;8.958;2023-05-07T12:04:37;2.50;;;2.30;;
17228;SDS011;8731;50.364;8.958;2023-05-07T12:09:00;3.67;;;2.43;;
17228;SDS011;8731;50.364;8.958;2023-05-07T12:13:23;2.60;;;2.20;;
17228;SDS011;8731;50.364;8.958;2023-05-07T12:17:48;2.33;;;2.13;;
17228;SDS011;8731;50.364;8.958;2023-05-07T12:22:13;2.60;;;2.40;;
17228;SDS011;8731;50.364;8.958;2023-05-07T12:26:37;2.17;;;1.97;;
17228;SDS011;8731;50.364;8.958;2023-05-07T12:31:00;2.20;;;2.00;;
17228;SDS011;8731;50.364;8.958;2023-05-07T12:35:27;4.60;;;2.37;;
17228;SDS011;8731;50.364;8.958;2023-05-07T12:40:03;3.47;;;2.37;;
17228;SDS011;8731;50.364;8.958;2023-05-07T12:44:29;2.33;;;2.10;;
17228;SDS011;8731;50.364;8.958;2023-05-07T12:48:53;2.33;;;2.10;;
17228;SDS011;8731;50.364;8.958;2023-05-07T12:53:16;4.00;;;1.93;;
17228;SDS011;8731;50.364;8.958;2023-05-07T12:57:42;1.90;;;1.80;;
17228;SDS011;8731;50.364;8.958;2023-05-07T13:02:10;2.07;;;1.90;;
17228;SDS011;8731;50.364;8.958;2023-05-07T13:06:34;2.27;;;2.07;;
17228;SDS011;8731;50.364;8.958;2023-05-07T13:10:57;2.10;;;1.90;;
17228;SDS011;8731;50.364;8.958;2023-05-07T13:15:24;2.30;;;1.93;;
17228;SDS011;8731;50.364;8.958;2023-05-07T13:19:47;1.90;;;1.80;;
17228;SDS011;8731;50.364;8.958;2023-05-07T13:24:10;3.13;;;1.90;;
17228;SDS011;8731;50.364;8.958;2023-05-07T13:28:32;2.13;;;1.60;;
17228;SDS011;8731;50.364;8.958;2023-05-07T13:32:56;2.00;;;1.80;;
17228;SDS011;8731;50.364;8.958;2023-05-07T13:37:18;2.40;;;2.07;;
17228;SDS011;8731;50.364;8.958;2023-05-07T13:41:41;2.43;;;1.80;;
17228;SDS011;8731;50.364;8.958;2023-05-07T13:46:03;2.03;;;1.80;;
17228;SDS011;8731;50.364;8.958;2023-05-07T13:50:27;1.93;;;1.83;;
17228;SDS011;8731;50.364;8.958;2023-05-07T13:54:50;2.87;;;1.70;;
17228;SDS011;8731;50.364;8.958;2023-05-07T13:59:12;1.70;;;1.60;;
17228;SDS011;8731;50.364;8.958;2023-05-07T14:03:35;2.03;;;1.57;;
17228;SDS011;8731;50.364;8.958;2023-05-07T14:08:01;1.90;;;1.80;;
17228;SDS011;8731;50.364;8.958;2023-05-07T14:12:24;1.90;;;1.80;;
17228;SDS011;8731;50.364;8.958;2023-05-07T14:16:47;1.90;;;1.80;;
17228;SDS011;8731;50.364;8.958;2023-05-07T14:21:09;1.80;;;1.70;;
17228;SDS011;8731;50.364;8.958;2023-05-07T14:25:33;2.17;;;1.97;;
17228;SDS011;8731;50.364;8.958;2023-05-07T14:29:55;1.93;;;1.73;;
17228;SDS011;8731;50.364;8.958;2023-05-07T14:34:18;1.90;;;1.80;;
17228;SDS011;8731;50.364;8.958;2023-05-07T14:38:40;1.77;;;1.67;;
17228;SDS011;8731;50.364;8.958;2023-05-07T14:43:04;3.23;;;1.97;;
17228;SDS011;8731;50.364;8.958;2023-05-07T14:47:27;2.90;;;1.80;;
17228;SDS011;8731;50.364;8.958;2023-05-07T14:51:49;1.83;;;1.70;;
17228;SDS011;8731;50.364;8.958;2023-05-07T14:56:11;2.43;;;1.60;;
17228;SDS011;8731;50.364;8.958;2023-05-07T15:00:35;2.00;;;1.80;;
17228;SDS011;8731;50.364;8.958;2023-05-07T15:04:58;2.40;;;2.00;;
17228;SDS011;8731;50.364;8.958;2023-05-07T15:09:21;4.07;;;1.80;;
17228;SDS011;8731;50.364;8.958;2023-05-07T15:13:44;2.77;;;1.80;;
17228;SDS011;8731;50.364;8.958;2023-05-07T15:18:08;2.00;;;1.80;;
17228;SDS011;8731;50.364;8.958;2023-05-07T15:22:31;2.10;;;1.90;;
17228;SDS011;8731;50.364;8.958;2023-05-07T15:26:53;3.87;;;1.60;;
17228;SDS011;8731;50.364;8.958;2023-05-07T15:31:15;2.30;;;1.93;;
17228;SDS011;8731;50.364;8.958;2023-05-07T15:35:39;1.80;;;1.70;;
17228;SDS011;8731;50.364;8.958;2023-05-07T15:40:02;1.97;;;1.63;;
17228;SDS011;8731;50.364;8.958;2023-05-07T15:44:26;1.73;;;1.60;;
17228;SDS011;8731;50.364;8.958;2023-05-07T15:48:50;2.90;;;2.37;;
17228;SDS011;8731;50.364;8.958;2023-05-07T15:53:15;2.60;;;2.40;;
17228;SDS011;8731;50.364;8.958;2023-05-07T15:57:37;2.87;;;2.43;;
17228;SDS011;8731;50.364;8.958;2023-05-07T16:02:00;3.17;;;2.87;;
17228;SDS011;8731;50.364;8.958;2023-05-07T16:06:23;3.30;;;3.00;;
17228;SDS011;8731;50.364;8.958;2023-05-07T16:10:46;4.37;;;3.17;;
17228;SDS011;8731;50.364;8.958;2023-05-07T16:15:09;3.90;;;3.60;;
17228;SDS011;8731;50.364;8.958;2023-05-07T16:19:31;3.97;;;3.57;;
17228;SDS011;8731;50.364;8.958;2023-05-07T16:23:54;3.97;;;3.40;;
17228;SDS011;8731;50.364;8.958;2023-05-07T16:28:18;4.03;;;3.63;;
17228;SDS011;8731;50.364;8.958;2023-05-07T16:32:40;4.43;;;3.70;;
17228;SDS011;8731;50.364;8.958;2023-05-07T16:37:03;4.60;;;3.80;;
17228;SDS011;8731;50.364;8.958;2023-05-07T16:41:26;8.37;;;3.53;;
17228;SDS011;8731;50.364;8.958;2023-05-07T16:45:50;4.83;;;4.43;;
17228;SDS011;8731;50.364;8.958;2023-05-07T16:50:12;3.97;;;3.57;;
17228;SDS011;8731;50.364;8.958;2023-05-07T16:54:35;4.33;;;3.90;;
17228;SDS011;8731;50.364;8.958;2023-05-07T16:58:57;4.00;;;3.60;;
17228;SDS011;8731;50.364;8.958;2023-05-07T17:03:21;3.67;;;3.37;;
17228;SDS011;8731;50.364;8.958;2023-05-07T17:07:43;4.27;;;3.87;;
17228;SDS011;8731;50.364;8.958;2023-05-07T17:12:06;4.17;;;3.77;;
17228;SDS011;8731;50.364;8.958;2023-05-07T17:16:28;4.63;;;4.23;;
17228;SDS011;8731;50.364;8.958;2023-05-07T17:20:52;4.63;;;4.23;;
17228;SDS011;8731;50.364;8.958;2023-05-07T17:25:14;4.10;;;3.70;;
17228;SDS011;8731;50.364;8.958;2023-05-07T17:29:37;5.93;;;5.37;;
17228;SDS011;8731;50.364;8.958;2023-05-07T17:33:59;4.50;;;4.10;;
17228;SDS011;8731;50.364;8.958;2023-05-07T17:38:23;4.80;;;3.77;;
17228;SDS011;8731;50.364;8.958;2023-05-07T17:42:45;4.63;;;4.07;;
17228;SDS011;8731;50.364;8.958;2023-05-07T17:47:08;4.23;;;3.80;;
17228;SDS011;8731;50.364;8.958;2023-05-07T17:51:31;4.60;;;4.10;;
17228;SDS011;8731;50.364;8.958;2023-05-07T17:55:55;4.57;;;4.17;;
17228;SDS011;8731;50.364;8.958;2023-05-07T18:00:17;4.97;;;3.80;;
17228;SDS011;8731;50.364;8.958;2023-05-07T18:04:40;4.37;;;4.00;;
17228;SDS011;8731;50.364;8.958;2023-05-07T18:09:03;6.97;;;4.57;;
17228;SDS011;8731;50.364;8.958;2023-05-07T18:13:27;7.00;;;3.87;;
17228;SDS011;8731;50.364;8.958;2023-05-07T18:17:49;4.93;;;4.10;;
17228;SDS011;8731;50.364;8.958;2023-05-07T18:22:12;5.27;;;4.43;;
17228;SDS011;8731;50.364;8.958;2023-05-07T18:26:34;5.43;;;4.17;;
17228;SDS011;8731;50.364;8.958;2023-05-07T18:30:58;4.73;;;4.33;;
17228;SDS011;8731;50.364;8.958;2023-05-07T18:35:20;4.87;;;4.47;;
17228;SDS011;8731;50.364;8.958;2023-05-07T18:39:43;4.93;;;4.40;;
17228;SDS011;8731;50.364;8.958;2023-05-07T18:44:05;4.63;;;4.20;;
17228;SDS011;8731;50.364;8.958;2023-05-07T18:48:29;4.70;;;4.30;;
17228;SDS011;8731;50.364;8.958;2023-05-07T18:52:51;5.23;;;4.07;;
17228;SDS011;8731;50.364;8.958;2023-05-07T18:57:13;5.17;;;4.10;;
17228;SDS011;8731;50.364;8.958;2023-05-07T19:01:36;6.73;;;3.30;;
17228;SDS011;8731;50.364;8.958;2023-05-07T19:06:00;2.37;;;2.20;;
17228;SDS011;8731;50.364;8.958;2023-05-07T19:10:24;2.37;;;2.17;;
17228;SDS011;8731;50.364;8.958;2023-05-07T19:14:47;2.90;;;2.23;;
17228;SDS011;8731;50.364;8.958;2023-05-07T19:19:09;3.90;;;2.33;;
17228;SDS011;8731;50.364;8.958;2023-05-07T19:23:33;5.47;;;2.27;;
17228;SDS011;8731;50.364;8.958;2023-05-07T19:28:00;2.53;;;2.10;;
17228;SDS011;8731;50.364;8.958;2023-05-07T19:32:23;3.73;;;2.43;;
17228;SDS011;8731;50.364;8.958;2023-05-07T19:36:45;3.63;;;2.00;;
17228;SDS011;8731;50.364;8.958;2023-05-07T19:41:09;2.00;;;1.90;;
17228;SDS011;8731;50.364;8.958;2023-05-07T19:45:32;2.67;;;2.13;;
17228;SDS011;8731;50.364;8.958;2023-05-07T19:49:54;4.83;;;2.63;;
17228;SDS011;8731;50.364;8.958;2023-05-07T19:54:16;2.27;;;2.07;;
17228;SDS011;8731;50.364;8.958;2023-05-07T19:58:40;2.80;;;2.20;;
17228;SDS011;8731;50.364;8.958;2023-05-07T20:03:02;3.90;;;2.50;;
17228;SDS011;8731;50.364;8.958;2023-05-07T20:07:25;4.03;;;2.37;;
17228;SDS011;8731;50.364;8.958;2023-05-07T20:11:48;2.60;;;2.10;;
17228;SDS011;8731;50.364;8.958;2023-05-07T20:16:11;2.97;;;2.10;;
17228;SDS011;8731;50.364;8.958;2023-05-07T20:20:34;2.53;;;2.20;;
17228;SDS011;8731;50.364;8.958;2023-05-07T20:24:57;4.33;;;2.30;;
17228;SDS011;8731;50.364;8.958;2023-05-07T20:29:20;2.53;;;2.33;;
17228;SDS011;8731;50.364;8.958;2023-05-07T20:33:44;4.67;;;2.40;;
17228;SDS011;8731;50.364;8.958;2023-05-07T20:38:07;2.90;;;2.63;;
17228;SDS011;8731;50.364;8.958;2023-05-07T20:42:29;3.70;;;2.60;;
17228;SDS011;8731;50.364;8.958;2023-05-07T20:46:52;3.53;;;2.70;;
17228;SDS011;8731;50.364;8.958;2023-05-07T20:51:16;3.47;;;3.13;;
17228;SDS011;8731;50.364;8.958;2023-05-07T20:55:38;5.30;;;4.80;;
17228;SDS011;8731;50.364;8.958;2023-05-07T21:00:01;5.60;;;4.77;;
17228;SDS011;8731;50.364;8.958;2023-05-07T21:04:24;5.63;;;4.70;;
17228;SDS011;8731;50.364;8.958;2023-05-07T21:08:47;5.83;;;5.23;;
17228;SDS011;8731;50.364;8.958;2023-05-07T21:13:10;6.50;;;5.70;;
17228;SDS011;8731;50.364;8.958;2023-05-07T21:17:32;6.00;;;5.40;;
17228;SDS011;8731;50.364;8.958;2023-05-07T21:21:54;5.63;;;5.10;;
17228;SDS011;8731;50.364;8.958;2023-05-07T21:26:18;5.90;;;5.33;;
17228;SDS011;8731;50.364;8.958;2023-05-07T21:30:41;5.43;;;4.93;;
17228;SDS011;8731;50.364;8.958;2023-05-07T21:35:04;5.93;;;5.07;;
17228;SDS011;8731;50.364;8.958;2023-05-07T21:39:28;5.90;;;5.40;;
17228;SDS011;8731;50.364;8.958;2023-05-07T21:43:52;5.67;;;5.17;;
17228;SDS011;8731;50.364;8.958;2023-05-07T21:48:15;6.00;;;5.30;;
17228;SDS011;8731;50.364;8.958;2023-05-07T21:52:41;5.63;;;5.10;;
17228;SDS011;8731;50.364;8.958;2023-05-07T21:57:03;6.00;;;5.50;;
17228;SDS011;8731;50.364;8.958;2023-05-07T22:01:27;7.13;;;4.80;;
17228;SDS011;8731;50.364;8.958;2023-05-07T22:05:49;5.27;;;4.77;;
17228;SDS011;8731;50.364;8.958;2023-05-07T22:10:12;6.13;;;4.80;;
17228;SDS011;8731;50.364;8.958;2023-05-07T22:14:34;6.60;;;4.80;;
17228;SDS011;8731;50.364;8.958;2023-05-07T22:18:58;5.60;;;5.00;;
17228;SDS011;8731;50.364;8.958;2023-05-07T22:23:20;5.40;;;4.90;;
17228;SDS011;8731;50.364;8.958;2023-05-07T22:27:43;5.27;;;4.77;;
17228;SDS011;8731;50.364;8.958;2023-05-07T22:32:06;6.00;;;5.43;;
17228;SDS011;8731;50.364;8.958;2023-05-07T22:36:29;5.30;;;4.80;;
17228;SDS011;8731;50.364;8.958;2023-05-07T22:40:52;5.20;;;4.80;;
17228;SDS011;8731;50.364;8.958;2023-05-07T22:45:14;5.33;;;4.87;;
17228;SDS011;8731;50.364;8.958;2023-05-07T22:49:37;5.67;;;4.73;;
17228;SDS011;8731;50.364;8.958;2023-05-07T22:54:01;6.40;;;4.73;;
17228;SDS011;8731;50.364;8.958;2023-05-07T22:58:23;5.60;;;5.10;;
17228;SDS011;8731;50.364;8.958;2023-05-07T23:02:46;6.37;;;5.77;;
17228;SDS011;8731;50.364;8.958;2023-05-07T23:07:08;5.80;;;5.30;;
17228;SDS011;8731;50.364;8.958;2023-05-07T23:11:32;8.97;;;5.20;;
17228;SDS011;8731;50.364;8.958;2023-05-07T23:15:55;7.10;;;5.00;;
17228;SDS011;8731;50.364;8.958;2023-05-07T23:20:18;5.67;;;5.17;;
17228;SDS011;8731;50.364;8.958;2023-05-07T23:24:41;5.83;;;5.03;;
17228;SDS011;8731;50.364;8.958;2023-05-07T23:29:05;6.80;;;5.67;;
17228;SDS011;8731;50.364;8.958;2023-05-07T23:33:27;5.63;;;5.20;;
17228;SDS011;8731;50.364;8.958;2023-05-07T23:37:50;6.23;;;5.00;;
17228;SDS011;8731;50.364;8.958;2023-05-07T23:42:12;5.53;;;5.03;;
17228;SDS011;8731;50.364;8.958;2023-05-07T23:46:36;5.77;;;5.17;;
17228;SDS011;8731;50.364;8.958;2023-05-07T23:50:59;5.13;;;4.63;;
17228;SDS011;8731;50.364;8.958;2023-05-07T23:55:21;7.37;;;5.20;;
17228;SDS011;8731;50.364;8.958;2023-05-07T23:59:43;6.00;;;4.80;;
